Time;durP1;ratioP1;P1;durP2;ratioP2;P2;SDS_P1;SDS_P2;PMS_P1;PMS_P2;Temp;Humidity;BMP_temperature;BMP_pressure;BME280_temperature;BME280_humidity;BME280_pressure;Samples;Min_cycle;Max_cycle;Signal;HPM_P1;HPM_P2
2022/05/23 00:01:36;;;;;;;7.93;4.65;;;;;;;18.85;67.89;100643.81;5264745;28;20127;-69
2022/05/23 00:04:08;;;;;;;9.07;4.57;;;;;;;18.78;68.95;100631.47;5267580;28;20024;-69
2022/05/23 00:06:39;;;;;;;9.20;5.10;;;;;;;18.78;68.56;100632.28;5270005;28;20504;-69
2022/05/23 00:09:11;;;;;;;9.15;4.57;;;;;;;18.82;68.21;100640.69;5266274;28;20125;-69
2022/05/23 00:11:43;;;;;;;8.87;5.43;;;;;;;18.83;68.68;100637.06;5268770;28;20400;-69
2022/05/23 00:14:17;;;;;;;11.87;5.17;;;;;;;18.80;69.16;100635.59;5269835;28;20032;-69
2022/05/23 00:16:50;;;;;;;9.88;4.70;;;;;;;18.80;69.00;100635.59;5268065;28;20055;-69
2022/05/23 00:19:22;;;;;;;8.13;4.63;;;;;;;18.77;69.00;100638.63;5267847;28;20458;-69
2022/05/23 00:21:55;;;;;;;10.40;5.38;;;;;;;18.79;69.51;100631.31;5269944;28;20036;-69
2022/05/23 00:24:27;;;;;;;12.23;5.10;;;;;;;18.72;70.04;100614.50;5266773;28;20016;-68
2022/05/23 00:26:58;;;;;;;10.17;5.17;;;;;;;18.70;68.88;100616.47;5265549;28;20470;-68
2022/05/23 00:29:29;;;;;;;9.73;4.70;;;;;;;18.69;70.55;100610.34;5268920;28;20393;-68
2022/05/23 00:37:41;;;;;;;9.30;4.88;;;;;;;18.58;71.73;100624.09;5268642;28;20478;-69
2022/05/23 00:40:30;;;;;;;11.30;5.30;;;;;;;18.73;72.87;100624.09;5265810;28;20028;-69
2022/05/23 00:43:14;;;;;;;10.95;5.57;;;;;;;18.51;73.86;100615.25;5267439;28;20468;-69
2022/05/23 00:46:04;;;;;;;10.43;5.55;;;;;;;18.61;73.11;100612.31;5269012;28;20035;-69
2022/05/23 00:48:36;;;;;;;10.98;5.70;;;;;;;18.40;74.54;100608.59;5269435;28;20025;-69
2022/05/23 00:51:13;;;;;;;9.30;5.22;;;;;;;18.53;73.50;100591.22;5262949;28;20239;-69
2022/05/23 00:53:50;;;;;;;10.60;5.60;;;;;;;18.39;75.20;100585.75;5283094;28;20055;-69
2022/05/23 00:56:26;;;;;;;7.82;5.05;;;;;;;18.47;75.28;100582.97;5268561;28;20052;-69
2022/05/23 00:59:00;;;;;;;9.45;5.78;;;;;;;18.40;73.62;100579.41;5265925;28;20411;-69
2022/05/23 01:01:35;;;;;;;8.38;4.80;;;;;;;18.32;73.79;100570.75;5268568;28;20066;-69
2022/05/23 01:04:07;;;;;;;12.90;6.10;;;;;;;18.21;73.77;100577.38;5269536;28;20440;-69
2022/05/23 01:06:38;;;;;;;10.13;5.47;;;;;;;18.26;74.04;100587.41;5269533;28;20108;-70
2022/05/23 01:09:10;;;;;;;12.30;5.28;;;;;;;18.29;74.26;100592.34;5264527;28;20037;-70
2022/05/23 01:11:42;;;;;;;11.53;6.00;;;;;;;18.22;74.50;100585.16;5265648;28;21038;-70
2022/05/23 01:14:13;;;;;;;9.85;5.65;;;;;;;18.23;74.74;100599.22;5267960;28;20039;-70
2022/05/23 01:16:44;;;;;;;10.68;5.18;;;;;;;18.21;74.20;100603.88;5266827;28;20417;-70
2022/05/23 01:19:16;;;;;;;11.93;5.78;;;;;;;18.16;74.94;100604.44;5265942;28;20021;-70
2022/05/23 01:21:55;;;;;;;10.40;5.18;;;;;;;18.22;74.72;100601.06;5268489;28;20020;-70
2022/05/23 01:24:45;;;;;;;9.00;5.78;;;;;;;18.18;75.99;100591.00;5266206;28;20082;-70
2022/05/23 01:27:18;;;;;;;9.35;5.63;;;;;;;18.01;76.33;100578.97;5266266;28;20067;-70
2022/05/23 01:29:49;;;;;;;9.93;5.82;;;;;;;17.92;76.41;100573.78;5266392;28;20032;-69
2022/05/23 01:32:21;;;;;;;12.07;5.95;;;;;;;17.92;76.82;100581.72;5264852;28;20040;-69
2022/05/23 01:34:52;;;;;;;10.30;5.82;;;;;;;17.86;77.09;100576.34;5265181;28;20024;-69
2022/05/23 01:37:23;;;;;;;9.45;5.38;;;;;;;17.92;77.26;100567.66;5267930;28;20409;-70
2022/05/23 01:39:55;;;;;;;12.43;5.82;;;;;;;17.93;75.91;100571.94;5267250;28;20509;-70
2022/05/23 01:42:26;;;;;;;11.40;5.67;;;;;;;17.82;78.11;100569.75;5269108;28;20025;-69
2022/05/23 01:44:57;;;;;;;10.80;5.35;;;;;;;17.81;77.94;100573.44;5267275;28;20040;-69
2022/05/23 01:47:29;;;;;;;8.65;5.05;;;;;;;17.79;77.75;100575.44;5265920;28;20043;-70
2022/05/23 01:50:00;;;;;;;7.55;5.32;;;;;;;17.75;78.30;100574.97;5265402;28;20040;-70
2022/05/23 01:52:32;;;;;;;7.40;5.10;;;;;;;17.71;79.84;100573.66;5264937;28;20039;-70
2022/05/23 01:55:03;;;;;;;9.27;5.70;;;;;;;17.72;80.68;100578.78;5266406;28;20029;-70
2022/05/23 01:57:35;;;;;;;9.82;5.50;;;;;;;17.65;80.87;100572.59;5265962;28;20472;-69
2022/05/23 02:02:57;;;;;;;9.85;6.05;;;;;;;17.58;82.87;100547.81;5267049;28;20052;-70
2022/05/23 02:05:30;;;;;;;7.50;5.68;;;;;;;17.68;80.83;100548.34;5263801;28;20032;-70
2022/05/23 02:08:01;;;;;;;9.60;5.80;;;;;;;17.62;80.98;100549.09;5265024;28;20051;-69
2022/05/23 02:10:33;;;;;;;11.80;6.25;;;;;;;17.57;81.19;100554.09;5267184;28;20028;-70
2022/05/23 02:13:04;;;;;;;8.20;5.45;;;;;;;17.57;81.74;100558.59;5265570;28;20021;-69
2022/05/23 02:15:35;;;;;;;9.15;5.75;;;;;;;17.60;82.85;100561.69;5265036;28;20493;-69
2022/05/23 02:18:07;;;;;;;9.70;6.28;;;;;;;17.57;81.74;100558.59;5266041;28;20040;-70
2022/05/23 02:20:38;;;;;;;10.20;5.38;;;;;;;17.58;81.66;100552.28;5265298;28;20016;-70
2022/05/23 02:23:09;;;;;;;8.93;6.30;;;;;;;17.54;82.09;100558.94;5266432;28;20024;-70
2022/05/23 02:25:41;;;;;;;12.30;6.30;;;;;;;17.50;82.27;100548.75;5264187;28;20073;-70
2022/05/23 02:28:13;;;;;;;8.90;6.05;;;;;;;17.46;83.40;100550.13;5264948;28;20043;-69
2022/05/23 02:30:46;;;;;;;8.13;6.07;;;;;;;17.46;82.89;100547.47;5265349;28;20075;-69
2022/05/23 02:33:17;;;;;;;12.63;6.60;;;;;;;17.37;83.97;100545.06;5266509;28;20493;-69
2022/05/23 02:35:48;;;;;;;8.45;6.32;;;;;;;17.42;84.59;100545.34;5266166;28;20029;-69
2022/05/23 02:38:20;;;;;;;9.95;6.43;;;;;;;17.41;84.14;100527.81;5267157;28;20025;-70
2022/05/23 02:40:51;;;;;;;10.10;6.25;;;;;;;17.36;84.87;100522.25;5264901;28;20103;-70
2022/05/23 02:43:22;;;;;;;12.82;6.93;;;;;;;17.38;83.85;100525.53;5262880;28;20036;-70
2022/05/23 02:45:54;;;;;;;8.07;5.97;;;;;;;17.38;84.93;100525.53;5267535;28;20048;-70
2022/05/23 02:48:25;;;;;;;10.32;6.60;;;;;;;17.36;86.03;100517.78;5263841;28;20107;-70
2022/05/23 02:50:56;;;;;;;11.68;7.03;;;;;;;17.32;85.07;100507.72;5265213;28;20048;-70
2022/05/23 02:53:28;;;;;;;11.13;6.22;;;;;;;17.33;86.78;100490.84;5265606;28;20111;-69
2022/05/23 02:55:59;;;;;;;10.05;5.72;;;;;;;17.30;86.37;100496.50;5267361;28;20120;-69
2022/05/23 02:58:30;;;;;;;11.15;6.30;;;;;;;17.30;86.55;100480.59;5265789;28;20071;-70
2022/05/23 03:01:03;;;;;;;12.13;6.32;;;;;;;17.22;86.85;100468.28;5263870;28;20025;-71
2022/05/23 03:03:34;;;;;;;12.45;6.63;;;;;;;17.27;86.50;100466.75;5264228;28;20462;-69
2022/05/23 03:06:07;;;;;;;10.35;6.70;;;;;;;17.11;88.72;100456.31;5263393;28;20066;-70
2022/05/23 03:08:39;;;;;;;;;;;;;;;17.68;82.06;100433.59;5267573;28;20032;-70
2022/05/23 03:11:10;;;;;;;10.57;6.23;;;;;;;17.12;88.69;100428.88;5255580;28;19989;-70
2022/05/23 03:13:41;;;;;;;13.30;7.00;;;;;;;17.05;89.96;100435.03;5264358;28;20025;-69
2022/05/23 03:16:13;;;;;;;11.98;7.72;;;;;;;17.09;90.13;100429.22;5264760;28;20051;-70
2022/05/23 03:18:44;;;;;;;15.20;7.68;;;;;;;17.08;90.92;100432.84;5264190;28;20028;-69
2022/05/23 03:26:58;;;;;;;12.65;7.25;;;;;;;17.03;91.04;100429.94;5265875;28;20025;-70
2022/05/23 03:27:00;;;;;;;10.55;6.85;;;;;;;16.95;92.50;100411.50;5264025;28;20037;-69
2022/05/23 03:29:31;;;;;;;8.70;6.35;;;;;;;16.96;91.84;100413.97;5265092;28;20036;-70
2022/05/23 03:32:03;;;;;;;14.45;7.50;;;;;;;16.88;92.93;100400.81;5265527;28;20025;-70
2022/05/23 03:34:34;;;;;;;9.23;6.55;;;;;;;16.91;92.90;100397.81;5264617;28;20036;-70
2022/05/23 03:37:06;;;;;;;10.48;7.30;;;;;;;17.01;92.64;100410.78;5264834;28;20024;-69
2022/05/23 03:39:38;;;;;;;9.43;6.55;;;;;;;16.91;92.61;100394.34;5265642;28;20492;-69
2022/05/23 03:42:09;;;;;;;13.70;7.90;;;;;;;16.89;94.06;100386.59;5264567;28;20029;-69
2022/05/23 03:44:41;;;;;;;9.68;6.93;;;;;;;16.92;93.04;100386.22;5262130;28;20036;-69
2022/05/23 03:47:12;;;;;;;9.48;6.55;;;;;;;16.92;93.96;100393.34;5266166;28;20036;-70
2022/05/23 03:49:44;;;;;;;13.30;7.25;;;;;;;16.91;95.51;100386.41;5263850;28;20028;-69
2022/05/23 03:52:15;;;;;;;10.80;7.23;;;;;;;16.86;96.02;100373.75;5266646;28;20029;-69
2022/05/23 03:54:47;;;;;;;10.48;7.13;;;;;;;16.90;94.70;100374.19;5264802;28;20365;-69
2022/05/23 03:57:19;;;;;;;12.02;7.22;;;;;;;16.84;95.58;100378.38;5265286;28;20056;-69
2022/05/23 03:59:52;;;;;;;9.85;7.68;;;;;;;16.82;96.09;100372.47;5263296;28;20024;-69
2022/05/23 04:02:23;;;;;;;10.15;6.72;;;;;;;16.78;97.03;100372.00;5259189;28;20076;-69
2022/05/23 04:04:55;;;;;;;10.45;7.13;;;;;;;16.74;96.80;100365.44;5262725;28;20124;-70
2022/05/23 04:07:27;;;;;;;12.00;7.15;;;;;;;16.73;98.34;100365.56;5260301;28;20062;-69
2022/05/23 04:09:58;;;;;;;11.43;6.97;;;;;;;16.73;97.12;100362.94;5269795;28;20025;-70
2022/05/23 04:12:30;;;;;;;10.55;7.50;;;;;;;16.71;97.66;100359.66;5266968;28;20338;-69
2022/05/23 04:15:02;;;;;;;10.02;7.22;;;;;;;16.76;97.50;100352.03;5268073;28;20032;-69
2022/05/23 04:17:37;;;;;;;13.88;7.25;;;;;;;16.71;98.72;100343.78;5269081;28;20461;-69
2022/05/23 04:20:10;;;;;;;10.27;7.60;;;;;;;16.66;100.00;100344.31;5265341;28;20035;-69
2022/05/23 04:22:44;;;;;;;12.18;7.10;;;;;;;16.71;98.72;100349.91;5268584;28;20032;-69
2022/05/23 04:25:15;;;;;;;11.02;6.90;;;;;;;16.75;99.92;100345.09;5270573;28;20032;-69
2022/05/23 04:27:46;;;;;;;14.30;7.10;;;;;;;16.80;100.00;100340.06;5266327;28;20021;-69
2022/05/23 04:30:18;;;;;;;11.45;6.97;;;;;;;16.84;100.00;100343.16;5268251;28;20028;-69
2022/05/23 04:35:39;;;;;;;8.85;6.70;;;;;;;16.84;100.00;100336.06;5266755;28;20032;-69
2022/05/23 04:38:11;;;;;;;11.60;7.20;;;;;;;16.90;100.00;100342.44;5266845;28;20028;-69
2022/05/23 04:40:44;;;;;;;11.27;6.75;;;;;;;16.93;99.86;100342.06;5268877;28;20417;-69
2022/05/23 04:43:15;;;;;;;9.40;6.23;;;;;;;16.98;100.00;100329.13;5268729;28;20029;-69
2022/05/23 04:45:47;;;;;;;12.05;7.28;;;;;;;16.96;100.00;100325.81;5265071;28;20291;-69
2022/05/23 04:51:08;;;;;;;10.07;6.60;;;;;;;16.99;99.67;100313.03;5268374;28;20037;-70
2022/05/23 04:53:39;;;;;;;8.55;6.45;;;;;;;17.05;99.75;100310.66;5265565;28;20028;-69
2022/05/23 04:56:11;;;;;;;10.60;6.90;;;;;;;17.16;100.00;100310.16;5267611;28;20449;-69
2022/05/23 04:58:42;;;;;;;10.48;6.32;;;;;;;17.13;99.23;100311.38;5264401;28;20040;-69
2022/05/23 05:01:13;;;;;;;11.70;6.53;;;;;;;17.20;98.72;100314.94;5267271;28;21217;-69
2022/05/23 05:03:48;;;;;;;10.13;6.43;;;;;;;17.31;98.64;100312.78;5267386;28;20078;-69
2022/05/23 05:06:22;;;;;;;7.22;6.40;;;;;;;17.27;98.08;100314.97;5266509;28;20063;-69
2022/05/23 05:08:53;;;;;;;;;;;;;;;17.82;93.67;100305.59;5265161;28;20036;-69
2022/05/23 05:11:24;;;;;;;6.77;5.30;;;;;;;17.47;98.11;100299.34;5265051;28;19916;-69
2022/05/23 05:13:55;;;;;;;7.90;5.80;;;;;;;17.52;96.98;100295.09;5268435;28;20025;-69
2022/05/23 05:16:26;;;;;;;8.13;5.67;;;;;;;17.55;97.48;100283.31;5266391;28;20435;-70
2022/05/23 05:18:59;;;;;;;11.10;6.33;;;;;;;17.61;98.33;100277.25;5263242;28;20781;-69
2022/05/23 05:21:30;;;;;;;8.30;5.40;;;;;;;17.67;98.42;100271.19;5267632;28;20279;-69
2022/05/23 05:24:01;;;;;;;10.85;5.82;;;;;;;17.71;96.83;100269.78;5267930;28;20497;-69
2022/05/23 05:26:33;;;;;;;9.80;5.60;;;;;;;17.78;95.73;100261.94;5265964;28;20024;-70
2022/05/23 05:29:04;;;;;;;9.10;6.07;;;;;;;17.85;97.13;100262.00;5267166;28;20415;-70
2022/05/23 05:31:37;;;;;;;8.40;5.57;;;;;;;17.89;93.88;100253.47;5267690;28;20024;-69
2022/05/23 05:34:17;;;;;;;12.80;5.28;;;;;;;18.04;94.23;100255.22;5264848;28;20033;-69
2022/05/23 05:36:54;;;;;;;7.80;5.57;;;;;;;17.99;94.44;100243.38;5265217;28;20039;-69
2022/05/23 05:39:31;;;;;;;7.95;5.43;;;;;;;17.98;94.77;100232.94;5269097;28;20043;-69
2022/05/23 05:42:11;;;;;;;8.57;5.90;;;;;;;18.11;93.75;100241.00;5264110;28;20094;-69
2022/05/23 05:44:47;;;;;;;9.55;5.90;;;;;;;18.11;93.20;100235.69;5265282;28;20032;-70
2022/05/23 05:47:20;;;;;;;6.35;5.25;;;;;;;18.14;91.18;100240.59;5264843;28;20028;-70
2022/05/23 05:49:56;;;;;;;9.40;6.38;;;;;;;18.17;90.54;100226.13;5265483;28;20028;-70
2022/05/23 05:52:31;;;;;;;9.20;6.18;;;;;;;18.18;91.57;100223.31;5266491;28;20105;-69
2022/05/23 05:55:05;;;;;;;7.53;5.78;;;;;;;18.26;91.74;100221.47;5266020;28;20413;-69
2022/05/23 05:57:36;;;;;;;9.07;6.05;;;;;;;18.32;91.74;100213.56;5268302;28;20067;-70
2022/05/23 06:00:08;;;;;;;9.20;6.38;;;;;;;18.37;89.88;100212.97;5266898;28;20056;-69
2022/05/23 06:02:39;;;;;;;8.23;6.00;;;;;;;18.48;90.05;100220.38;5264615;28;20498;-69
2022/05/23 06:05:10;;;;;;;9.23;6.50;;;;;;;18.47;89.33;100213.44;5266827;28;20027;-69
2022/05/23 06:13:21;;;;;;;10.00;6.25;;;;;;;18.77;86.83;100226.47;5264205;28;20028;-69
2022/05/23 06:15:53;;;;;;;9.38;6.40;;;;;;;18.84;88.25;100214.84;5266565;28;20490;-69
2022/05/23 06:18:24;;;;;;;9.50;6.95;;;;;;;18.92;84.98;100211.19;5264850;28;20028;-69
2022/05/23 06:20:56;;;;;;;8.20;6.38;;;;;;;19.01;84.30;100206.50;5264860;28;20019;-70
2022/05/23 06:23:27;;;;;;;11.80;6.17;;;;;;;19.06;83.30;100202.25;5265540;28;20067;-70
2022/05/23 06:25:58;;;;;;;9.20;6.63;;;;;;;19.14;83.26;100199.41;5263055;28;20070;-69
2022/05/23 06:28:35;;;;;;;7.83;6.40;;;;;;;19.15;82.09;100190.41;5266397;28;20021;-70
2022/05/23 06:31:07;;;;;;;8.82;6.63;;;;;;;19.21;80.56;100188.78;5265849;28;20475;-70
2022/05/23 06:33:39;;;;;;;6.73;6.03;;;;;;;19.31;81.60;100188.38;5264849;28;20064;-70
2022/05/23 06:36:12;;;;;;;7.97;6.60;;;;;;;19.39;83.50;100188.19;5261692;28;20078;-70
2022/05/23 06:38:43;;;;;;;8.15;6.10;;;;;;;19.44;80.40;100191.88;5265685;28;20460;-70
2022/05/23 06:41:15;;;;;;;7.03;6.20;;;;;;;19.54;78.89;100185.31;5262603;28;20021;-70
2022/05/23 06:43:46;;;;;;;7.67;5.83;;;;;;;19.58;79.32;100192.66;5263108;28;20035;-69
2022/05/23 06:46:18;;;;;;;10.60;6.47;;;;;;;19.72;78.87;100190.06;5265426;28;20025;-70
2022/05/23 06:48:49;;;;;;;10.27;6.75;;;;;;;19.87;76.94;100188.00;5264807;28;20032;-70
2022/05/23 06:51:22;;;;;;;14.98;6.38;;;;;;;20.04;77.37;100188.34;5265159;28;20052;-70
2022/05/23 06:53:56;;;;;;;9.43;5.20;;;;;;;20.12;74.18;100191.63;5266647;28;20024;-70
2022/05/23 06:56:31;;;;;;;7.75;5.80;;;;;;;20.21;75.50;100183.41;5265504;28;20024;-69
2022/05/23 06:59:02;;;;;;;7.22;5.18;;;;;;;20.26;71.80;100194.22;5264996;28;20039;-69
2022/05/23 07:01:34;;;;;;;8.13;4.80;;;;;;;20.30;70.13;100198.91;5263617;28;20045;-69
2022/05/23 07:04:05;;;;;;;9.20;4.57;;;;;;;20.31;70.71;100189.13;5264313;28;20113;-70
2022/05/23 07:12:27;;;;;;;7.88;4.75;;;;;;;20.44;73.52;100199.72;5262011;28;20040;-70
2022/05/23 07:14:59;;;;;;;10.48;4.13;;;;;;;20.49;72.09;100191.94;5264788;28;20035;-70
2022/05/23 07:17:30;;;;;;;6.37;4.37;;;;;;;20.52;70.44;100183.53;5266909;28;20021;-69
2022/05/23 07:20:01;;;;;;;8.23;4.17;;;;;;;20.54;73.82;100183.34;5262423;28;20062;-69
2022/05/23 07:22:34;;;;;;;9.60;4.83;;;;;;;20.40;71.52;100187.84;5261446;28;20043;-69
2022/05/23 07:25:06;;;;;;;11.35;4.82;;;;;;;20.40;74.09;100179.88;5264333;28;20037;-70
2022/05/23 07:27:37;;;;;;;6.77;4.33;;;;;;;20.47;72.17;100179.84;5264961;28;20024;-70
2022/05/23 07:30:09;;;;;;;8.87;4.50;;;;;;;20.45;71.40;100190.69;5264081;28;20036;-69
2022/05/23 07:32:40;;;;;;;8.33;5.00;;;;;;;20.46;72.70;100195.00;5262715;28;20033;-70
2022/05/23 07:35:11;;;;;;;6.53;4.03;;;;;;;20.50;71.56;100200.75;5263773;28;20037;-69
2022/05/23 07:37:43;;;;;;;7.10;4.47;;;;;;;20.57;69.04;100185.53;5263241;28;20083;-69
2022/05/23 07:40:14;;;;;;;7.90;4.50;;;;;;;20.63;70.69;100190.84;5265729;28;20139;-70
2022/05/23 07:42:47;;;;;;;5.97;4.37;;;;;;;20.77;70.94;100182.81;5264877;28;20040;-70
2022/05/23 07:45:18;;;;;;;7.93;4.90;;;;;;;20.97;69.15;100180.03;5267582;28;20151;-69
2022/05/23 07:47:50;;;;;;;9.17;4.50;;;;;;;20.96;67.22;100171.22;5270132;28;20120;-69
2022/05/23 07:50:21;;;;;;;8.60;5.03;;;;;;;21.18;67.52;100165.56;5265567;28;20028;-69
2022/05/23 08:01:24;;;;;;;8.15;4.28;;;;;;;21.96;65.27;100162.41;5268848;28;20056;-69
2022/05/23 08:03:56;;;;;;;7.72;3.83;;;;;;;22.03;61.57;100158.63;5268655;28;20024;-69
2022/05/23 08:06:28;;;;;;;;;;;;;;;22.63;62.51;100155.28;5270132;28;20677;-69
2022/05/23 08:08:59;;;;;;;7.90;3.33;;;;;;;22.34;63.22;100149.69;5267131;28;19928;-70
2022/05/23 08:11:30;;;;;;;8.80;4.43;;;;;;;22.33;60.66;100150.72;5270331;28;21187;-69
2022/05/23 08:14:04;;;;;;;6.63;4.10;;;;;;;22.29;61.13;100138.06;5268979;28;20037;-69
2022/05/23 08:16:36;;;;;;;6.47;3.72;;;;;;;22.19;59.32;100133.25;5266329;28;20037;-69
2022/05/23 08:19:08;;;;;;;8.10;3.30;;;;;;;22.01;59.23;100126.06;5265552;28;20060;-69
2022/05/23 08:21:46;;;;;;;8.50;4.10;;;;;;;22.09;60.57;100141.75;5267154;28;20028;-70
2022/05/23 08:24:17;;;;;;;6.32;3.80;;;;;;;21.88;60.29;100133.38;5266377;28;20021;-70
2022/05/23 08:26:48;;;;;;;7.30;3.73;;;;;;;21.86;60.87;100129.09;5269141;28;20494;-70
2022/05/23 08:29:20;;;;;;;7.37;3.63;;;;;;;21.98;61.10;100123.03;5267525;28;20017;-69
2022/05/23 08:31:51;;;;;;;9.67;3.63;;;;;;;21.97;63.57;100119.53;5267970;28;20047;-69
2022/05/23 08:34:23;;;;;;;7.73;4.13;;;;;;;21.96;62.55;100120.56;5268190;28;20440;-69
2022/05/23 08:36:55;;;;;;;7.43;3.67;;;;;;;21.96;60.22;100123.22;5268285;28;20546;-69
2022/05/23 08:39:26;;;;;;;9.63;3.92;;;;;;;22.11;63.00;100102.31;5267734;28;20090;-69
2022/05/23 08:42:05;;;;;;;6.27;4.10;;;;;;;22.14;62.27;100097.63;5266697;28;20021;-69
2022/05/23 08:44:53;;;;;;;9.02;4.10;;;;;;;22.24;61.70;100093.38;5268794;28;20086;-69
2022/05/23 08:47:33;;;;;;;7.45;3.60;;;;;;;22.25;61.42;100081.66;5266167;28;20035;-69
2022/05/23 08:50:24;;;;;;;9.32;3.72;;;;;;;22.46;60.86;100083.00;5268331;28;20059;-69
2022/05/23 08:53:11;;;;;;;7.40;3.63;;;;;;;22.49;59.83;100077.22;5268787;28;20025;-69
2022/05/23 08:55:56;;;;;;;9.10;4.03;;;;;;;22.48;59.13;100080.13;5266870;28;20028;-70
2022/05/23 08:58:36;;;;;;;7.05;3.63;;;;;;;22.48;58.68;100078.28;5265024;28;20035;-69
2022/05/23 09:01:32;;;;;;;8.13;3.95;;;;;;;22.46;58.42;100077.66;5268450;28;20032;-70
2022/05/23 09:04:15;;;;;;;6.47;3.90;;;;;;;22.55;58.02;100068.31;5233877;28;20435;-70
2022/05/23 09:06:48;;;;;;;6.00;3.67;;;;;;;22.54;58.26;100060.50;5266264;28;20059;-70
2022/05/23 09:09:22;;;;;;;4.25;3.17;;;;;;;22.51;56.99;100051.13;5268835;28;20029;-69
2022/05/23 09:12:04;;;;;;;7.57;3.80;;;;;;;22.40;55.91;100051.09;5267927;28;20021;-70
2022/05/23 09:14:36;;;;;;;9.20;3.47;;;;;;;22.33;57.36;100049.31;5266152;28;20443;-70
2022/05/23 09:17:23;;;;;;;7.88;3.90;;;;;;;22.59;58.61;100050.81;5268013;28;20656;-70
2022/05/23 09:20:05;;;;;;;8.48;3.45;;;;;;;22.56;59.52;100047.78;5267161;28;20065;-70
2022/05/23 09:22:47;;;;;;;10.85;3.75;;;;;;;22.48;61.95;100045.44;5266400;28;20028;-69
2022/05/23 09:25:22;;;;;;;7.20;3.47;;;;;;;22.40;61.02;100043.91;5265294;28;20025;-69
2022/05/23 09:28:37;;;;;;;8.88;3.58;;;;;;;22.67;60.42;100040.84;5268916;28;20072;-69
2022/05/23 09:31:27;;;;;;;6.50;3.55;;;;;;;22.49;61.10;100025.69;5250771;28;20045;-70
2022/05/23 09:33:59;;;;;;;11.13;3.72;;;;;;;22.30;60.99;100024.94;5268984;28;20032;-70
2022/05/23 09:36:39;;;;;;;11.20;3.55;;;;;;;22.47;59.76;100020.59;5264940;28;20473;-69
2022/05/23 09:39:21;;;;;;;10.80;3.60;;;;;;;22.70;59.98;100006.47;5258967;28;20029;-70
2022/05/23 09:47:46;;;;;;;6.05;3.80;;;;;;;22.95;57.76;99994.78;5260459;28;20513;-69
2022/05/23 09:50:52;;;;;;;8.55;4.20;;;;;;;23.26;57.08;100001.63;5263247;28;20059;-69
2022/05/23 09:53:28;;;;;;;6.75;3.50;;;;;;;23.18;58.61;99989.44;5265289;28;20124;-69
2022/05/23 09:56:20;;;;;;;9.35;4.10;;;;;;;23.67;59.18;99973.09;5267539;28;20020;-69
2022/05/23 09:58:53;;;;;;;8.75;3.22;;;;;;;23.74;59.39;99963.88;5261490;28;20103;-69
2022/05/23 10:01:29;;;;;;;9.38;4.10;;;;;;;24.23;58.10;99958.91;5264842;28;20075;-70
2022/05/23 10:04:02;;;;;;;7.97;4.25;;;;;;;24.07;53.93;99956.22;5268015;28;20025;-70
2022/05/23 10:06:40;;;;;;;8.95;4.75;;;;;;;24.10;54.58;99953.06;5264319;28;20057;-70
2022/05/23 10:09:24;;;;;;;9.13;4.53;;;;;;;24.44;54.78;99949.38;5265260;28;20478;-70
2022/05/23 10:12:08;;;;;;;9.07;3.85;;;;;;;24.52;53.15;99948.16;5264435;28;20063;-70
2022/05/23 10:14:43;;;;;;;6.95;3.67;;;;;;;24.58;52.85;99941.00;5264814;28;20047;-69
2022/05/23 10:17:38;;;;;;;7.25;3.95;;;;;;;24.89;52.11;99947.63;5265273;28;20087;-70
2022/05/23 10:20:34;;;;;;;6.45;3.83;;;;;;;24.95;48.25;99947.47;5266351;28;20103;-70
2022/05/23 10:23:30;;;;;;;6.85;3.67;;;;;;;25.08;48.18;99961.56;5264772;28;20036;-70
2022/05/23 10:26:11;;;;;;;8.82;4.30;;;;;;;24.94;48.14;99964.59;5263492;28;20033;-70
2022/05/23 10:28:47;;;;;;;6.47;3.67;;;;;;;25.09;49.39;99953.28;5265646;28;20035;-70
2022/05/23 10:32:01;;;;;;;8.70;3.50;;;;;;;25.46;49.39;99948.16;5262262;28;20027;-70
2022/05/23 10:34:41;;;;;;;6.80;3.28;;;;;;;25.44;48.07;99946.78;5256724;28;20041;-69
2022/05/23 10:37:30;;;;;;;8.80;3.63;;;;;;;25.82;47.46;99948.59;5265123;28;20036;-70
2022/05/23 10:43:19;;;;;;;6.72;3.42;;;;;;;26.08;45.90;99927.38;5263704;28;20048;-70
2022/05/23 10:46:00;;;;;;;6.05;3.20;;;;;;;26.04;44.16;99918.22;5262601;28;20063;-70
2022/05/23 10:48:41;;;;;;;8.10;3.20;;;;;;;26.20;44.81;99906.53;5262658;28;20551;-70
2022/05/23 10:51:23;;;;;;;5.82;2.97;;;;;;;26.16;42.78;99898.16;5260659;28;20028;-70
2022/05/23 10:54:32;;;;;;;5.30;3.13;;;;;;;26.46;42.64;99896.03;5261125;28;20028;-70
2022/05/23 10:57:37;;;;;;;5.70;3.70;;;;;;;26.53;41.10;99904.66;5259041;28;20025;-70
2022/05/23 11:00:21;;;;;;;8.52;2.70;;;;;;;26.69;40.72;99899.13;5259886;28;20570;-70
2022/05/23 11:03:00;;;;;;;11.45;3.05;;;;;;;26.65;41.09;99889.97;5264988;28;20049;-70
2022/05/23 11:05:47;;;;;;;6.55;3.47;;;;;;;26.75;41.22;99883.84;5264323;28;20040;-71
2022/05/23 11:08:47;;;;;;;6.03;3.45;;;;;;;27.26;41.79;99865.28;5265185;28;20078;-70
2022/05/23 11:11:32;;;;;;;6.97;4.03;;;;;;;27.01;41.94;99851.69;5263852;28;20036;-70
2022/05/23 11:14:21;;;;;;;5.22;3.67;;;;;;;27.00;41.08;99836.66;5264929;28;20021;-70
2022/05/23 11:17:23;;;;;;;8.70;3.88;;;;;;;27.09;41.58;99830.50;5255317;28;20489;-70
2022/05/23 11:20:04;;;;;;;5.88;2.50;;;;;;;26.60;39.59;99820.09;5269077;28;20017;-70
2022/05/23 11:22:45;;;;;;;4.35;2.28;;;;;;;26.29;38.48;99821.75;5268765;28;20043;-70
2022/05/23 11:25:31;;;;;;;3.80;2.08;;;;;;;26.40;40.43;99810.03;5269243;28;20111;-70
2022/05/23 11:34:04;;;;;;;6.95;2.03;;;;;;;26.22;39.26;99797.00;5267114;28;20076;-70
2022/05/23 11:39:43;;;;;;;3.70;2.08;;;;;;;26.56;39.83;99796.69;5269655;28;20036;-70
2022/05/23 11:42:26;;;;;;;4.35;2.15;;;;;;;26.56;37.56;99789.44;5266584;28;20075;-71
2022/05/23 11:47:59;;;;;;;4.72;2.20;;;;;;;26.48;38.89;99781.88;5269076;28;20028;-70
2022/05/23 11:50:34;;;;;;;3.35;1.95;;;;;;;26.55;39.25;99777.06;5268629;28;20166;-70
2022/05/23 11:53:23;;;;;;;3.33;1.80;;;;;;;26.77;38.56;99773.41;5266135;28;20032;-71
2022/05/23 11:55:55;;;;;;;2.97;1.83;;;;;;;26.57;37.56;99766.06;5265316;28;20029;-71
2022/05/23 11:58:41;;;;;;;5.63;2.00;;;;;;;26.78;39.18;99758.88;5268560;28;20021;-70
2022/05/23 12:01:24;;;;;;;4.75;2.03;;;;;;;26.69;38.78;99761.28;5266448;28;20043;-71
2022/05/23 12:03:56;;;;;;;;;;;;;;;27.30;38.44;99758.78;5267483;28;20037;-71
2022/05/23 12:06:27;;;;;;;5.75;1.90;;;;;;;26.52;37.70;99755.28;5269197;28;20289;-71
2022/05/23 12:08:58;;;;;;;5.83;1.83;;;;;;;26.50;37.53;99744.81;5271375;28;20067;-71
2022/05/23 12:11:35;;;;;;;4.23;1.97;;;;;;;26.41;38.42;99749.06;5269521;28;20031;-71
2022/05/23 12:14:43;;;;;;;2.75;1.52;;;;;;;26.43;38.47;99752.28;5268927;28;20043;-71
2022/05/23 12:17:24;;;;;;;4.07;1.60;;;;;;;26.36;39.10;99740.94;5267842;28;20490;-71
2022/05/23 12:19:58;;;;;;;5.32;1.70;;;;;;;26.16;39.31;99745.16;5267181;28;20474;-71
2022/05/23 12:22:36;;;;;;;4.03;1.88;;;;;;;25.97;39.73;99749.31;5264728;28;20501;-71
2022/05/23 12:25:08;;;;;;;5.25;2.10;;;;;;;25.86;40.50;99747.63;5269642;28;20104;-70
2022/05/23 12:27:40;;;;;;;7.87;1.90;;;;;;;25.92;39.76;99736.69;5268943;28;20115;-70
2022/05/23 12:30:18;;;;;;;5.18;1.88;;;;;;;26.04;39.92;99739.19;5265498;28;20479;-71
2022/05/23 12:33:00;;;;;;;4.80;1.90;;;;;;;25.94;40.47;99734.53;5268094;28;20498;-71
2022/05/23 12:35:40;;;;;;;3.10;1.90;;;;;;;26.06;40.76;99728.97;5268512;28;20130;-71
2022/05/23 12:38:48;;;;;;;5.03;1.77;;;;;;;26.15;40.03;99732.00;5266968;28;20037;-71
2022/05/23 12:41:46;;;;;;;4.10;1.60;;;;;;;26.00;40.86;99713.13;5266621;28;20048;-70
2022/05/23 12:45:01;;;;;;;4.63;1.48;;;;;;;26.14;39.94;99706.22;5265747;28;20028;-71
2022/05/23 12:48:04;;;;;;;2.75;1.60;;;;;;;26.05;39.76;99694.34;5267163;28;20040;-71
2022/05/23 12:50:52;;;;;;;4.10;1.75;;;;;;;26.05;39.95;99689.78;5269763;28;20025;-71
2022/05/23 12:53:35;;;;;;;4.10;1.88;;;;;;;26.20;40.48;99694.44;5268722;28;20040;-71
2022/05/23 12:56:37;;;;;;;3.85;1.80;;;;;;;26.49;41.19;99681.44;5263473;28;20028;-71
2022/05/23 12:59:33;;;;;;;5.90;1.95;;;;;;;26.50;40.13;99683.03;5269498;28;20115;-71
2022/05/23 13:02:16;;;;;;;4.60;1.95;;;;;;;26.29;39.57;99679.44;5280445;22;20137;-69
2022/05/23 13:04:55;;;;;;;4.68;2.00;;;;;;;26.12;40.69;99678.81;5238343;28;20115;-70